DHK001 LPPT-EGKK
Flight info
| Callsign | DHK001 |
|---|---|
| Flight time | N/A |
| Altitude | 34000 |
| Route | LPPT/02 N0466F380 IXID1N IXIDA DCT RIVRO DCT TOSDI N745 ZMR N873 DELOG DCT ERCOZ DCT BADUR DCT FEJAC DCT JSY/N0454F340 DCT REVTU UP88 VASUX VASU1G EGKK/08R |
| Aircraft | A333/H-SDE3GHIJ2J3J5M1RVWXYZ/LB2D1 |
Departure
| Time | 2026-05-06 21:34 |
|---|---|
| Airport | Lisbon Humberto Delgado Airport (LPPT) |
Arrival
| Time | N/A |
|---|---|
| Airport | London Gatwick Airport (EGKK) |
| Time | Latitude | Longitude | Altitude | Speed | Heading |
|---|---|---|---|---|---|
| 2026-05-06 21:01 | 38.76882 | -9.13583 | 351 ft | 0 kts | 262° |
| 2026-05-06 21:25 | 38.76885 | -9.13561 | 361 ft | 4 kts | 258° |
| 2026-05-06 21:25 | 38.76892 | -9.13528 | 361 ft | 4 kts | 241° |
| 2026-05-06 21:25 | 38.76905 | -9.13503 | 361 ft | 4 kts | 217° |
| 2026-05-06 21:26 | 38.76925 | -9.13499 | 361 ft | 4 kts | 154° |
| 2026-05-06 21:26 | 38.76945 | -9.13510 | 361 ft | 1 kts | 167° |
| 2026-05-06 21:28 | 38.76943 | -9.13509 | 361 ft | 1 kts | 167° |
| 2026-05-06 21:28 | 38.76898 | -9.13496 | 359 ft | 14 kts | 166° |
| 2026-05-06 21:29 | 38.76793 | -9.13464 | 357 ft | 17 kts | 167° |
| 2026-05-06 21:29 | 38.76677 | -9.13453 | 356 ft | 16 kts | 209° |
| 2026-05-06 21:29 | 38.76639 | -9.13574 | 358 ft | 15 kts | 258° |
| 2026-05-06 21:29 | 38.76619 | -9.13704 | 357 ft | 15 kts | 259° |
| 2026-05-06 21:30 | 38.76597 | -9.13842 | 358 ft | 16 kts | 257° |
| 2026-05-06 21:30 | 38.76568 | -9.13987 | 358 ft | 17 kts | 244° |
| 2026-05-06 21:30 | 38.76500 | -9.14115 | 359 ft | 17 kts | 251° |
| 2026-05-06 21:30 | 38.76526 | -9.14265 | 353 ft | 16 kts | 292° |
| 2026-05-06 21:31 | 38.76530 | -9.14279 | 356 ft | 0 kts | 292° |
| 2026-05-06 21:31 | 38.76535 | -9.14293 | 357 ft | 4 kts | 292° |
| 2026-05-06 21:31 | 38.76537 | -9.14300 | 357 ft | 0 kts | 292° |
| 2026-05-06 21:32 | 38.76542 | -9.14315 | 352 ft | 6 kts | 292° |
| 2026-05-06 21:33 | 38.76613 | -9.14396 | 350 ft | 19 kts | 359° |
| 2026-05-06 21:33 | 38.76743 | -9.14338 | 347 ft | 27 kts | 22° |
| 2026-05-06 21:33 | 38.77089 | -9.14155 | 350 ft | 82 kts | 23° |
| 2026-05-06 21:33 | 38.77779 | -9.13783 | 354 ft | 132 kts | 22° |
| 2026-05-06 21:34 | 38.78764 | -9.13250 | 471 ft | 168 kts | 18° |
| 2026-05-06 21:34 | 38.79868 | -9.12623 | 1036 ft | 173 kts | 22° |
| 2026-05-06 21:34 | 38.80875 | -9.11908 | 1890 ft | 167 kts | 25° |
| 2026-05-06 21:34 | 38.81945 | -9.11105 | 2316 ft | 189 kts | 26° |
| 2026-05-06 21:35 | 38.83161 | -9.10206 | 2618 ft | 214 kts | 26° |
| 2026-05-06 21:35 | 38.84535 | -9.09202 | 2839 ft | 238 kts | 27° |
| 2026-05-06 21:35 | 38.86017 | -9.08120 | 3385 ft | 249 kts | 27° |
| 2026-05-06 21:35 | 38.87552 | -9.07003 | 4033 ft | 257 kts | 27° |
| 2026-05-06 21:36 | 38.89134 | -9.05840 | 4648 ft | 267 kts | 31° |
| 2026-05-06 21:36 | 38.90627 | -9.04351 | 5286 ft | 275 kts | 40° |
| 2026-05-06 21:36 | 38.92061 | -9.02692 | 6065 ft | 278 kts | 43° |
| 2026-05-06 21:36 | 38.93492 | -9.01004 | 6880 ft | 279 kts | 43° |
| 2026-05-06 21:37 | 38.94919 | -8.99324 | 7663 ft | 283 kts | 43° |
| 2026-05-06 21:37 | 38.96383 | -8.97606 | 8448 ft | 286 kts | 43° |
| 2026-05-06 21:37 | 38.97860 | -8.95877 | 9269 ft | 288 kts | 43° |
| 2026-05-06 21:37 | 38.99357 | -8.94126 | 9991 ft | 293 kts | 43° |
| 2026-05-06 21:38 | 39.00907 | -8.92314 | 10383 ft | 310 kts | 42° |
| 2026-05-06 21:38 | 39.02528 | -8.90419 | 10628 ft | 330 kts | 42° |
| 2026-05-06 21:38 | 39.04280 | -8.88370 | 10865 ft | 349 kts | 42° |
| 2026-05-06 21:38 | 39.06117 | -8.86221 | 11281 ft | 362 kts | 42° |
| 2026-05-06 21:39 | 39.07998 | -8.84019 | 11836 ft | 369 kts | 42° |
| 2026-05-06 21:39 | 39.09905 | -8.81784 | 12584 ft | 371 kts | 42° |
| 2026-05-06 21:39 | 39.11833 | -8.79523 | 13193 ft | 377 kts | 42° |
| 2026-05-06 21:39 | 39.13781 | -8.77237 | 13904 ft | 380 kts | 42° |
| 2026-05-06 21:40 | 39.15744 | -8.74926 | 14408 ft | 387 kts | 43° |
| 2026-05-06 21:40 | 39.17635 | -8.72439 | 15015 ft | 389 kts | 47° |
| 2026-05-06 21:40 | 39.19431 | -8.69855 | 15603 ft | 394 kts | 49° |
| 2026-05-06 21:40 | 39.21248 | -8.67193 | 16230 ft | 396 kts | 49° |
| 2026-05-06 21:41 | 39.23076 | -8.64507 | 16779 ft | 401 kts | 49° |
| 2026-05-06 21:41 | 39.24929 | -8.61786 | 17383 ft | 404 kts | 49° |
| 2026-05-06 21:41 | 39.26801 | -8.59036 | 17948 ft | 408 kts | 49° |
| 2026-05-06 21:41 | 39.28683 | -8.56269 | 18468 ft | 412 kts | 49° |
| 2026-05-06 21:42 | 39.30581 | -8.53480 | 18933 ft | 415 kts | 49° |
| 2026-05-06 21:42 | 39.32469 | -8.50701 | 19440 ft | 418 kts | 49° |
| 2026-05-06 21:42 | 39.34395 | -8.47865 | 19924 ft | 421 kts | 49° |
| 2026-05-06 21:42 | 39.36335 | -8.45005 | 20416 ft | 424 kts | 49° |